Latest Coastal Weather Observations for Rundle Island

IDQ60701

Issued at 8:02 am EST Friday 26 August 2016 (issued every 10 minutes, with the page automatically refreshed every 10 minutes)

About coastal observations | Map of coastal stations | Coastal observations for QLD | Marine services | Other Formats
Station Details ID: 039322 Name: RUNDLE ISLAND Lat: -23.53 Lon: 151.28 Height: 19.8 m
Data from the previous 72 hours. | See also: Recent months at Rundle Island
Date/Time
EST
Temp
°C
Wind Pressure Rain since
9am
mm
Weather Cloud Vis
km
Sea
Height
m
Swell
Dir  Spd
kts
Gust
kts
hPa Trend Height
m
Period
s
Dir
26/08:00am 16.0 S 12 15 1017.2 - - - - - - - - -
26/07:30am 16.0 S 11 13 1017.2 - - - - - - - - -
26/07:00am 15.9 S 13 15 1016.9 - - - - - - - - -
26/06:30am 16.4 S 16 19 1016.5 - - - - - - - - -
26/06:00am 16.6 S 15 17 1016.1 - - - - - - - - -
26/05:30am 16.7 SSE 14 16 1015.9 - - - - - - - - -
26/05:00am 16.5 SSE 14 17 1015.2 - - - - - - - - -
26/04:30am 16.7 S 15 18 1015.3 - - - - - - - - -
26/04:00am 17.1 SSE 17 21 1014.8 - - - - - - - - -
26/03:30am 17.1 S 17 20 1014.4 - - - - - - - - -
26/03:00am 17.4 S 16 19 1014.5 - - - - - - - - -
26/02:30am 17.8 S 17 19 1014.6 - - - - - - - - -
26/02:00am 18.1 SSE 17 20 1014.5 - - - - - - - - -
26/01:30am 18.0 S 15 18 1014.8 - - - - - - - - -
26/01:00am 17.9 S 16 18 1014.8 - - - - - - - - -
26/12:30am 18.2 SSW 17 19 1015.0 - - - - - - - - -
26/12:00am 18.6 SSW 16 19 1015.3 - - - - - - - - -
 
Date/Time
EST
Temp
°C
Wind Pressure Rain since
9am
mm
Weather Cloud Vis
km
Sea
Height
m
Swell
Dir  Spd
kts
Gust
kts
hPa Trend Height
m
Period
s
Dir
25/11:00pm 18.5 SW 7 9 1015.6 - - - - - - - - -
25/10:30pm 18.8 SW 5 7 1015.4 - - - - - - - - -
25/10:00pm 19.0 SW 4 6 1015.4 - - - - - - - - -
25/09:00pm 18.9 W 5 6 1014.9 - - - - - - - - -
25/08:30pm 19.3 NW 5 6 1014.8 - - - - - - - - -
25/08:00pm 19.4 NW 5 7 1014.6 - - - - - - - - -
25/07:30pm 19.5 NNW 8 9 1014.5 - - - - - - - - -
25/07:00pm 19.4 NNW 8 9 1014.0 - - - - - - - - -
25/06:30pm 19.3 NNW 9 10 1013.7 - - - - - - - - -
25/06:00pm 19.2 NNW 9 11 1013.1 - - - - - - - - -
25/05:30pm 19.0 N 10 12 1012.9 - - - - - - - - -
25/05:00pm 19.0 NNW 9 10 1012.7 - - - - - - - - -
25/04:30pm 19.0 N 8 8 1012.2 - - - - - - - - -
25/04:00pm 18.6 CALM 0 1 1012.0 - - - - - - - - -
25/03:30pm 18.8 CALM 0 3 1011.6 - - - - - - - - -
25/03:00pm 18.7 CALM 0 0 1011.7 - - - - - - - - -
25/02:30pm 18.9 CALM 0 0 1012.0 - - - - - - - - -
25/02:00pm 18.5 CALM 0 0 1011.8 - - - - - - - - -
25/01:30pm 18.6 S 2 3 1012.0 - - - - - - - - -
25/01:00pm 18.5 S 3 5 1012.4 - - - - - - - - -
25/12:30pm 18.0 S 7 9 1012.6 - - - - - - - - -
25/12:00pm 17.8 SSW 6 7 1013.1 - - - - - - - - -
25/11:30am 17.9 SSW 11 13 1013.1 - - - - - - - - -
25/11:00am 17.7 SSW 11 13 1013.6 - - - - - - - - -
25/10:30am 17.4 SW 13 14 1014.1 - - - - - - - - -
25/10:00am 17.8 SW 10 12 1014.2 - - - - - - - - -
25/09:30am 18.1 SSW 10 13 1014.0 - - - - - - - - -
25/09:00am 18.1 WSW 8 10 1013.8 - - - - - - - - -
25/08:30am 18.2 SW 7 9 1013.6 - - - - - - - - -
25/08:00am 18.1 W 7 8 1013.1 - - - - - - - - -
25/07:30am 18.2 W 6 7 1013.0 - - - - - - - - -
25/07:00am 18.2 NW 9 10 1013.0 - - - - - - - - -
25/06:30am 18.0 W 5 7 1011.9 - - - - - - - - -
25/06:00am 18.2 WNW 5 5 1012.2 - - - - - - - - -
25/05:30am 18.1 WNW 5 7 1011.9 - - - - - - - - -
25/05:00am 18.0 SW 7 8 1010.5 - - - - - - - - -
25/04:30am 18.4 WNW 4 7 1011.3 - - - - - - - - -
25/04:00am 18.4 NW 9 11 1011.2 - - - - - - - - -
25/03:30am 18.2 WNW 11 13 1010.6 - - - - - - - - -
25/03:00am 18.1 NW 9 11 1009.9 - - - - - - - - -
25/02:30am 18.2 WNW 13 15 1011.6 - - - - - - - - -
25/02:00am 18.9 WNW 10 13 1011.2 - - - - - - - - -
25/01:30am 18.9 NW 12 15 1011.3 - - - - - - - - -
25/01:00am 18.7 NNW 14 15 1011.2 - - - - - - - - -
25/12:30am 18.7 NNW 15 17 1011.5 - - - - - - - - -
25/12:00am 18.7 NNW 14 17 1012.2 - - - - - - - - -
 
Date/Time
EST
Temp
°C
Wind Pressure Rain since
9am
mm
Weather Cloud Vis
km
Sea
Height
m
Swell
Dir  Spd
kts
Gust
kts
hPa Trend Height
m
Period
s
Dir
24/11:30pm 18.9 NNW 15 17 1012.6 - - - - - - - - -
24/11:00pm 18.8 NNW 17 20 1012.4 - - - - - - - - -
24/10:30pm 20.2 NW 8 11 1012.1 - - - - - - - - -
24/10:00pm 20.3 SSW 3 7 1011.5 - - - - - - - - -
24/09:30pm 20.6 NW 3 4 1011.1 - - - - - - - - -
24/09:00pm 20.5 NNW 5 6 1010.9 - - - - - - - - -
24/08:30pm 20.3 NNW 7 8 1011.1 - - - - - - - - -
24/08:00pm 20.8 NNW 6 8 1011.2 - - - - - - - - -
24/07:30pm 21.1 N 9 11 1011.0 - - - - - - - - -
24/07:00pm 21.2 NNE 4 5 1010.2 - - - - - - - - -
24/06:30pm 21.4 NNE 4 5 1010.0 - - - - - - - - -
24/06:00pm 21.6 SW 4 6 1009.8 - - - - - - - - -
24/05:30pm 21.6 SW 10 13 1009.6 - - - - - - - - -
24/05:00pm 21.9 WSW 15 19 1009.4 - - - - - - - - -
24/04:30pm 22.4 SW 16 21 1008.9 - - - - - - - - -
24/04:00pm 22.7 SW 22 31 1008.7 - - - - - - - - -
24/03:48pm 23.1 SW 15 27 1008.6 - - - - - - - - -
24/03:30pm 22.6 SW 12 13 1008.6 - - - - - - - - -
24/03:00pm 21.8 NW 10 11 1008.3 - - - - - - - - -
24/02:30pm 21.9 NNW 9 11 1008.0 - - - - - - - - -
24/02:00pm 22.1 NNW 6 7 1008.0 - - - - - - - - -
24/01:30pm 22.0 NNW 12 13 1008.1 - - - - - - - - -
24/01:00pm 21.6 N 9 11 1008.5 - - - - - - - - -
24/12:30pm 21.6 N 9 10 1008.8 - - - - - - - - -
24/12:00pm 21.8 NNW 10 11 1009.2 - - - - - - - - -
24/11:30am 21.9 NNW 10 11 1009.9 - - - - - - - - -
24/11:00am 22.1 NW 10 11 1010.5 - - - - - - - - -
24/10:30am 21.6 NNW 13 14 1010.7 - - - - - - - - -
24/10:00am 21.5 NNW 11 12 1011.0 - - - - - - - - -
24/09:30am 21.3 NNW 10 11 1011.1 - - - - - - - - -
24/09:00am 21.3 NNW 9 10 1011.1 - - - - - - - - -
24/08:30am 21.0 N 11 13 1010.8 - - - - - - - - -
24/08:00am 21.0 N 11 13 1010.6 - - - - - - - - -
24/07:30am 21.0 NNW 11 12 1010.3 - - - - - - - - -
24/07:00am 21.0 NNW 11 13 1010.1 - - - - - - - - -
24/06:30am 20.9 NNW 11 13 1009.7 - - - - - - - - -
24/06:00am 20.9 NNW 10 11 1009.4 - - - - - - - - -
24/05:30am 21.1 N 12 13 1008.9 - - - - - - - - -
24/05:00am 21.0 N 14 15 1008.5 - - - - - - - - -
24/04:30am 21.0 NNW 13 15 1008.2 - - - - - - - - -
24/04:00am 21.1 NNW 13 15 1008.1 - - - - - - - - -
24/03:30am 21.1 N 12 13 1008.5 - - - - - - - - -
24/03:00am 21.0 NNW 11 12 1008.7 - - - - - - - - -
24/02:30am 21.1 N 12 13 1008.9 - - - - - - - - -
24/02:00am 21.3 N 14 16 1009.2 - - - - - - - - -
24/01:30am 21.2 N 11 15 1009.7 - - - - - - - - -
24/01:00am 21.2 N 10 12 1010.1 - - - - - - - - -
24/12:30am 21.3 N 12 14 1010.3 - - - - - - - - -
24/12:00am 21.2 NNE 10 11 1010.6 - - - - - - - - -
 
Date/Time
EST
Temp
°C
Wind Pressure Rain since
9am
mm
Weather Cloud Vis
km
Sea
Height
m
Swell
Dir  Spd
kts
Gust
kts
hPa Trend Height
m
Period
s
Dir
23/11:30pm 21.3 NE 10 12 1010.9 - - - - - - - - -
23/11:00pm 21.3 NE 9 10 1011.3 - - - - - - - - -
23/10:30pm 21.3 NE 10 11 1011.7 - - - - - - - - -
23/10:00pm 21.4 NE 10 12 1012.0 - - - - - - - - -
23/09:30pm 21.3 ENE 9 11 1012.2 - - - - - - - - -
23/09:00pm 21.5 NE 8 9 1012.5 - - - - - - - - -
23/08:30pm 21.5 NE 9 10 1012.6 - - - - - - - - -
23/08:00pm 21.6 NE 10 11 1012.4 - - - - - - - - -
23/07:30pm 21.5 ENE 10 11 1012.1 - - - - - - - - -
23/07:00pm 21.5 ENE 9 10 1012.0 - - - - - - - - -
23/06:30pm 21.6 ENE 6 7 1012.0 - - - - - - - - -
23/06:00pm 21.6 ENE 8 9 1011.7 - - - - - - - - -
23/05:30pm 21.8 ENE 9 10 1011.7 - - - - - - - - -
23/05:00pm 22.0 ENE 11 12 1011.3 - - - - - - - - -
23/04:30pm 22.2 ENE 8 9 1011.1 - - - - - - - - -
23/04:00pm 22.2 ENE 5 5 1011.4 - - - - - - - - -
23/03:30pm 22.5 E 4 5 1011.3 - - - - - - - - -
23/03:00pm 22.4 E 6 6 1011.3 - - - - - - - - -
23/02:30pm 22.4 E 5 6 1011.4 - - - - - - - - -
23/02:00pm 22.8 E 5 5 1011.6 - - - - - - - - -
23/01:30pm 22.7 E 4 5 1011.9 - - - - - - - - -
23/01:00pm 22.4 ESE 4 5 1012.2 - - - - - - - - -
23/12:30pm 21.9 SE 4 5 1012.4 - - - - - - - - -
23/12:00pm 22.7 SE 2 3 1013.0 - - - - - - - - -
23/11:30am 23.3 E 3 3 1013.5 - - - - - - - - -
23/11:00am 23.5 ENE 4 4 1013.9 - - - - - - - - -
23/10:30am 23.1 ENE 5 7 1014.0 - - - - - - - - -
23/10:00am 22.8 ENE 8 9 1014.0 - - - - - - - - -
23/09:30am 22.6 ENE 5 8 1014.2 - - - - - - - - -
23/09:00am 22.8 E 3 4 1014.5 - - - - - - - - -
23/08:30am 21.4 ESE 6 7 1014.2 - - - - - - - - -

Other Formats:

Comma delimited format used in spreadsheet applications
http://www.bom.gov.au/fwo/IDQ60701/IDQ60701.94378.axf

JavaScript Object Notation format (JSON) in row-major order
http://www.bom.gov.au/fwo/IDQ60701/IDQ60701.94378.json